Time;durP1;ratioP1;P1;durP2;ratioP2;P2;SDS_P1;SDS_P2;PMS_P1;PMS_P2;Temp;Humidity;BMP_temperature;BMP_pressure;BME280_temperature;BME280_humidity;BME280_pressure;Samples;Min_cycle;Max_cycle;Signal;HPM_P1;HPM_P2
2020/12/18 00:01:21;;;;;;;83.57;50.60;;;;;;;-1.14;76.44;102292.72;4955114;29;20510;-92
2020/12/18 00:03:48;;;;;;;79.18;47.60;;;;;;;-0.84;76.35;102338.13;4983134;28;20027;-92
2020/12/18 00:06:16;;;;;;;86.07;52.53;;;;;;;-0.06;76.68;102483.72;4972713;28;20041;-93
2020/12/18 00:08:44;;;;;;;86.00;53.22;;;;;;;-0.10;76.52;102476.84;4988832;28;20054;-93
2020/12/18 00:11:11;;;;;;;82.00;54.00;;;;;;;0.07;75.68;102491.66;4972574;28;20035;-93
2020/12/18 00:13:40;;;;;;;73.82;49.60;;;;;;;-0.31;75.24;102416.97;4976180;28;20015;-94
2020/12/18 00:16:07;;;;;;;85.85;52.95;;;;;;;-0.08;74.42;102442.16;4979031;28;20062;-93
2020/12/18 00:18:34;;;;;;;84.80;51.45;;;;;;;-1.35;73.94;102228.41;4976402;28;20098;-93
2020/12/18 00:21:01;;;;;;;78.60;53.17;;;;;;;0.23;73.95;102506.66;4980611;28;20038;-94
2020/12/18 00:23:28;;;;;;;79.80;48.97;;;;;;;-1.22;74.19;102289.81;4976813;28;20113;-93
2020/12/18 00:26:01;;;;;;;80.50;50.83;;;;;;;-0.01;75.40;102527.78;4975024;28;20029;-93
2020/12/18 00:28:28;;;;;;;80.72;50.22;;;;;;;0.10;74.82;102510.47;4976771;28;20056;-93
2020/12/18 00:30:56;;;;;;;83.55;49.45;;;;;;;-1.23;73.93;102316.16;4976276;28;20043;-94
2020/12/18 00:33:23;;;;;;;86.20;47.72;;;;;;;-0.99;73.77;102351.22;4976242;28;20520;-94
2020/12/18 00:35:50;;;;;;;78.07;47.88;;;;;;;-0.73;74.61;102437.84;4976352;28;20034;-93
2020/12/18 00:38:17;;;;;;;77.38;44.53;;;;;;;-0.09;74.14;102521.25;5000925;28;20023;-95
2020/12/18 00:40:45;;;;;;;61.67;42.33;;;;;;;-1.68;73.94;102318.13;4975369;28;20404;-94
2020/12/18 00:43:35;;;;;;;60.45;39.67;;;;;;;-1.03;74.07;102398.69;4979845;28;20085;-92
2020/12/18 00:46:08;;;;;;;71.00;42.78;;;;;;;-0.88;73.39;102425.56;4991768;28;20094;-92
2020/12/18 00:48:35;;;;;;;59.58;40.92;;;;;;;-1.61;73.32;102266.84;4975212;28;20118;-92
2020/12/18 00:51:06;;;;;;;68.22;41.30;;;;;;;-0.90;72.32;102379.47;4978114;28;20029;-96
2020/12/18 00:53:35;;;;;;;72.68;40.55;;;;;;;-1.13;72.06;102354.28;4962724;28;20038;-91
2020/12/18 00:56:06;;;;;;;58.45;41.08;;;;;;;-0.38;71.92;102479.28;4973182;28;20054;-81
2020/12/18 00:58:34;;;;;;;72.57;44.20;;;;;;;-0.88;72.97;102441.88;4973539;28;20082;-88
2020/12/18 01:01:01;;;;;;;64.07;41.47;;;;;;;-1.33;72.13;102345.97;4973666;28;20448;-95
2020/12/18 01:03:29;;;;;;;66.07;41.75;;;;;;;-0.26;70.45;102512.72;4976635;28;20038;-89
2020/12/18 01:05:56;;;;;;;64.03;38.60;;;;;;;-1.20;69.46;102370.25;4977676;28;20061;-91
2020/12/18 01:08:23;;;;;;;68.07;39.90;;;;;;;-1.15;66.77;102369.84;4975106;28;20045;-93
2020/12/18 01:10:50;;;;;;;67.03;38.42;;;;;;;-1.20;66.51;102336.78;4971189;28;20451;-93
2020/12/18 01:13:17;;;;;;;58.97;35.10;;;;;;;-1.14;64.79;102368.84;4974458;28;20677;-92
2020/12/18 01:15:44;;;;;;;49.25;30.58;;;;;;;-0.93;64.33;102449.56;4974480;28;20031;-91
2020/12/18 01:18:11;;;;;;;57.08;30.88;;;;;;;-0.61;66.34;102484.00;4974076;28;20034;-89
2020/12/18 01:20:38;;;;;;;56.05;34.90;;;;;;;-0.18;65.08;102539.28;4973052;28;20034;-95
2020/12/18 01:23:05;;;;;;;60.13;36.10;;;;;;;-0.13;65.38;102519.81;5009241;28;20027;-89
2020/12/18 01:25:32;;;;;;;61.60;35.42;;;;;;;-0.61;63.94;102402.38;4974926;28;20504;-91
2020/12/18 01:27:59;;;;;;;52.55;32.10;;;;;;;-1.40;60.30;102307.63;4989132;28;20026;-90
2020/12/18 01:30:26;;;;;;;49.53;29.52;;;;;;;-0.24;59.20;102524.34;4973655;28;20043;-92
2020/12/18 01:32:55;;;;;;;46.78;26.45;;;;;;;-0.35;58.07;102546.19;4988527;28;20899;-94
2020/12/18 01:35:22;;;;;;;39.73;24.57;;;;;;;-0.20;56.87;102542.13;4976346;28;20014;-93
2020/12/18 01:37:49;;;;;;;45.45;27.23;;;;;;;-1.18;57.45;102378.28;4973905;28;20031;-92
2020/12/18 01:40:22;;;;;;;47.55;26.95;;;;;;;-0.47;58.09;102531.81;4988917;28;20027;-89
2020/12/18 01:42:54;;;;;;;52.47;32.88;;;;;;;-0.07;58.19;102502.94;4973644;28;20045;-91
2020/12/18 01:45:21;;;;;;;48.78;29.23;;;;;;;-0.44;58.57;102523.34;4987637;28;20612;-87
2020/12/18 01:48:04;;;;;;;47.35;25.08;;;;;;;-0.61;57.74;102527.53;4977616;28;20031;-92
2020/12/18 01:51:01;;;;;;;37.78;21.13;;;;;;;-0.42;55.55;102514.06;4997359;28;20019;-88
2020/12/18 01:53:31;;;;;;;49.42;26.25;;;;;;;-1.49;55.53;102308.38;4956851;28;20042;-96
2020/12/18 01:56:18;;;;;;;43.83;24.55;;;;;;;-0.78;56.50;102418.31;5008532;28;20030;-95
2020/12/18 01:58:47;;;;;;;39.28;23.88;;;;;;;-0.94;55.81;102451.44;4989727;28;20069;-94
2020/12/18 02:01:21;;;;;;;42.85;26.00;;;;;;;-1.41;55.60;102324.03;4978595;28;20437;-94
2020/12/18 02:03:48;;;;;;;38.65;24.70;;;;;;;-0.33;56.00;102506.97;4976862;28;20121;-94
2020/12/18 02:06:17;;;;;;;37.55;23.95;;;;;;;-0.39;56.36;102449.47;4973833;28;20348;-95
2020/12/18 02:08:45;;;;;;;50.07;27.07;;;;;;;-0.43;56.70;102457.91;4974746;28;20389;-96
2020/12/18 02:11:20;;;;;;;52.13;27.40;;;;;;;-1.42;56.01;102306.03;4973863;28;20035;-96
2020/12/18 02:14:11;;;;;;;33.13;20.13;;;;;;;-0.45;57.11;102483.53;4976257;28;20432;-95
2020/12/18 02:16:39;;;;;;;50.85;25.63;;;;;;;-0.19;57.26;102478.53;4975119;28;20031;-96
2020/12/18 02:19:13;;;;;;;56.42;28.52;;;;;;;-0.79;57.66;102383.13;4974883;28;20034;-96
2020/12/18 02:21:40;;;;;;;54.30;28.92;;;;;;;-1.97;58.72;102241.88;4990111;28;20049;-95
2020/12/18 02:24:08;;;;;;;52.92;28.50;;;;;;;-0.66;59.23;102410.94;4974776;28;20120;-94
2020/12/18 02:26:44;;;;;;;48.85;29.38;;;;;;;-0.30;58.67;102443.25;4974706;28;20122;-94
2020/12/18 02:29:11;;;;;;;61.22;31.58;;;;;;;0.12;58.04;102491.28;4974438;28;20026;-94
2020/12/18 02:31:38;;;;;;;48.15;28.73;;;;;;;0.31;58.42;102479.59;4938413;28;20743;-91
2020/12/18 02:34:05;;;;;;;49.80;27.85;;;;;;;-0.15;57.41;102419.22;4955740;28;20371;-94
2020/12/18 02:36:34;;;;;;;42.92;24.38;;;;;;;-0.18;57.89;102447.56;4954846;28;20028;-94
2020/12/18 02:39:02;;;;;;;52.25;26.88;;;;;;;-0.31;58.40;102395.22;4947271;28;20041;-95
2020/12/18 02:41:29;;;;;;;46.15;25.05;;;;;;;0.12;58.78;102481.22;4939387;29;20046;-95
2020/12/18 02:43:55;;;;;;;45.97;26.15;;;;;;;0.03;59.34;102483.91;4939578;29;20039;-95
2020/12/18 02:46:22;;;;;;;43.72;26.33;;;;;;;-0.88;60.18;102417.41;4958875;28;20037;-95
2020/12/18 02:48:49;;;;;;;57.83;26.83;;;;;;;-1.00;59.93;102389.41;4958958;28;20118;-94
2020/12/18 02:51:16;;;;;;;44.78;26.27;;;;;;;-0.78;59.51;102385.69;4960832;28;20039;-96
2020/12/18 02:53:43;;;;;;;54.83;24.15;;;;;;;-0.48;56.80;102392.13;4967772;28;20031;-90
2020/12/18 02:56:12;;;;;;;42.60;22.70;;;;;;;-0.31;57.26;102436.91;4948350;28;20058;-96
2020/12/18 02:58:38;;;;;;;43.47;24.25;;;;;;;-0.72;56.57;102327.16;4976091;28;20027;-91
2020/12/18 03:01:05;;;;;;;37.90;21.92;;;;;;;0.04;55.18;102444.78;4942432;28;20019;-89
2020/12/18 03:03:32;;;;;;;39.70;19.83;;;;;;;-0.38;52.41;102377.69;4947466;28;20545;-91
2020/12/18 03:05:59;;;;;;;31.17;17.27;;;;;;;-0.84;49.09;102354.44;4942357;28;20034;-92
2020/12/18 03:08:26;;;;;;;30.80;15.90;;;;;;;-0.51;48.10;102392.44;4960155;28;20486;-91
2020/12/18 03:10:53;;;;;;;26.17;14.20;;;;;;;-0.06;46.30;102428.44;4958565;28;20441;-87
2020/12/18 03:13:20;;;;;;;22.67;12.35;;;;;;;-0.70;45.28;102366.81;4958598;28;20024;-93
2020/12/18 03:15:58;;;;;;;50.08;16.13;;;;;;;-2.17;45.25;102175.66;4959252;28;20035;-92
2020/12/18 03:21:25;;;;;;;25.77;12.85;;;;;;;-1.17;42.51;102409.91;4948759;28;20042;-91
2020/12/18 03:24:02;;;;;;;23.20;11.85;;;;;;;-1.14;42.33;102402.34;4957904;28;20459;-84
2020/12/18 03:26:56;;;;;;;17.80;9.15;;;;;;;-2.30;43.13;102197.56;4979855;28;20038;-84
2020/12/18 03:30:02;;;;;;;23.35;12.25;;;;;;;-1.02;43.91;102362.34;4969826;28;20090;-85
2020/12/18 03:33:04;;;;;;;19.60;11.63;;;;;;;-0.38;44.64;102508.34;4919946;29;20046;-88
2020/12/18 03:35:49;;;;;;;25.83;12.98;;;;;;;-1.03;45.16;102371.50;4904049;29;20083;-87
2020/12/18 03:38:57;;;;;;;24.88;14.23;;;;;;;-2.01;44.90;102279.25;4955900;29;20037;-86
2020/12/18 03:41:46;;;;;;;29.38;13.82;;;;;;;-3.81;44.82;101953.34;4960535;29;20027;-87
2020/12/18 03:48:16;;;;;;;27.40;12.05;;;;;;;-3.56;43.15;102021.72;4965530;29;20556;-87
2020/12/18 03:50:52;;;;;;;20.15;11.02;;;;;;;-3.75;43.01;102027.78;4975478;28;20046;-91
2020/12/18 03:53:58;;;;;;;18.05;9.60;;;;;;;-0.64;43.36;102501.47;4928371;28;20082;-84
2020/12/18 03:57:22;;;;;;;;;;;;;;;;;;;;;
2020/12/18 04:00:04;;;;;;;23.02;12.23;;;;;;;-2.58;42.90;102178.16;4897193;29;20052;-90
2020/12/18 04:02:57;;;;;;;22.63;9.85;;;;;;;-1.90;41.46;102207.75;4966905;28;20050;-90
2020/12/18 04:05:53;;;;;;;20.38;10.82;;;;;;;-0.33;41.82;102506.09;4954054;28;21645;-86
2020/12/18 04:08:45;;;;;;;19.05;11.07;;;;;;;-2.72;42.50;102155.78;4959591;28;20034;-86
2020/12/18 04:14:25;;;;;;;28.40;12.85;;;;;;;-2.24;43.32;102194.34;4969422;28;20121;-90
2020/12/18 04:16:53;;;;;;;25.60;11.82;;;;;;;-0.23;42.54;102520.59;4952586;28;20038;-88
2020/12/18 04:19:32;;;;;;;21.67;10.30;;;;;;;-2.92;42.53;102073.44;4953221;28;20030;-91
2020/12/18 04:22:22;;;;;;;17.65;10.40;;;;;;;-2.55;42.58;102078.44;4951852;28;20050;-87
2020/12/18 04:24:58;;;;;;;21.98;12.85;;;;;;;-3.08;43.70;102028.59;4950260;28;20109;-87
2020/12/18 04:27:29;;;;;;;25.25;11.65;;;;;;;-3.18;43.86;102006.00;4948653;29;20042;-91
2020/12/18 04:30:00;;;;;;;22.55;11.82;;;;;;;-1.54;43.12;102238.16;4951704;28;20050;-90
2020/12/18 04:32:41;;;;;;;22.00;11.77;;;;;;;-1.66;43.99;102228.38;4960827;28;20031;-91
2020/12/18 04:35:30;;;;;;;29.20;15.45;;;;;;;-3.19;46.49;101988.03;4954915;28;20039;-90
2020/12/18 04:38:15;;;;;;;37.45;18.27;;;;;;;-2.51;49.31;102174.84;4961901;28;20042;-89
2020/12/18 04:44:17;;;;;;;36.08;18.58;;;;;;;-2.28;49.89;102147.63;4971064;28;20452;-92
2020/12/18 04:46:53;;;;;;;21.67;11.95;;;;;;;-3.40;48.04;102006.94;4955450;28;20485;-87
2020/12/18 04:49:35;;;;;;;;;;;;;;;;;;;;;
2020/12/18 04:52:10;;;;;;;36.72;18.55;;;;;;;-3.88;48.64;101915.09;4917483;29;20044;-90
2020/12/18 04:54:50;;;;;;;32.95;16.70;;;;;;;-1.74;49.65;102328.66;4914116;29;20043;-90
2020/12/18 04:57:32;;;;;;;;;;;;;;;;;;;;;
2020/12/18 05:00:29;;;;;;;27.30;14.07;;;;;;;-0.39;49.03;102509.34;4880431;29;20036;-90
2020/12/18 05:03:53;;;;;;;30.05;16.38;;;;;;;-0.54;49.99;102520.56;4918939;29;20059;-91
2020/12/18 05:06:32;;;;;;;33.75;16.95;;;;;;;-2.06;49.69;102308.63;4924431;29;20040;-88
2020/12/18 05:09:07;;;;;;;29.73;15.77;;;;;;;-3.43;50.11;102010.75;4939992;29;20146;-91
2020/12/18 05:11:50;;;;;;;35.45;19.90;;;;;;;-2.26;49.59;102242.47;4921047;29;20437;-89
2020/12/18 05:14:18;;;;;;;36.55;17.05;;;;;;;-2.02;49.01;102231.38;4938715;29;20134;-91
2020/12/18 05:16:50;;;;;;;35.00;17.05;;;;;;;-2.23;49.24;102253.91;4932258;29;20039;-88
2020/12/18 05:19:20;;;;;;;32.25;17.17;;;;;;;-2.20;49.17;102248.22;4927616;29;20138;-90
2020/12/18 05:21:50;;;;;;;23.45;12.52;;;;;;;-3.34;48.50;102015.41;4918206;29;20043;-90
2020/12/18 05:24:26;;;;;;;32.38;16.70;;;;;;;-2.53;47.67;102171.38;4921816;29;20119;-91
2020/12/18 05:26:54;;;;;;;29.67;13.77;;;;;;;-1.87;46.84;102226.50;4928524;28;20493;-89
2020/12/18 05:29:21;;;;;;;25.35;14.80;;;;;;;-0.73;47.48;102416.06;4951235;28;20023;-90
2020/12/18 05:31:48;;;;;;;35.10;16.30;;;;;;;-0.88;48.38;102428.28;4982239;28;20047;-89
2020/12/18 05:34:15;;;;;;;33.13;15.48;;;;;;;0.03;48.14;102520.19;4972805;28;20038;-88
2020/12/18 05:36:46;;;;;;;33.53;18.08;;;;;;;-1.84;47.57;102166.50;4972010;28;20063;-89
2020/12/18 05:39:13;;;;;;;29.80;15.27;;;;;;;-1.07;48.31;102340.13;4972055;28;20030;-93
2020/12/18 05:41:45;;;;;;;30.95;16.30;;;;;;;-0.59;47.78;102403.13;4972103;28;20054;-91
2020/12/18 05:44:12;;;;;;;35.65;18.20;;;;;;;-1.91;47.58;102241.31;4988902;28;20101;-91
2020/12/18 05:46:41;;;;;;;33.78;18.45;;;;;;;-0.32;48.28;102505.09;4988014;28;20023;-91
2020/12/18 05:49:09;;;;;;;27.23;14.07;;;;;;;0.20;47.02;102509.66;4985224;28;20109;-90
2020/12/18 05:54:54;;;;;;;34.42;16.58;;;;;;;-0.52;46.76;102439.69;4783802;26;20079;-91
2020/12/18 05:57:21;;;;;;;26.55;12.65;;;;;;;-0.65;45.94;102419.97;4939925;28;20042;-90
2020/12/18 05:59:49;;;;;;;30.42;15.40;;;;;;;-0.06;45.88;102515.56;4939384;29;20045;-91
2020/12/18 06:02:17;;;;;;;30.00;13.63;;;;;;;-0.18;46.03;102482.97;4937527;29;20506;-91
2020/12/18 06:04:45;;;;;;;37.30;14.55;;;;;;;-0.05;45.50;102529.03;4991124;23;20054;-88
2020/12/18 06:07:18;;;;;;;21.98;11.57;;;;;;;-1.57;45.32;102287.31;4976704;28;20038;-90
2020/12/18 06:10:10;;;;;;;23.00;13.82;;;;;;;-0.32;46.02;102515.97;4999056;28;20030;-86
2020/12/18 06:13:00;;;;;;;27.25;12.52;;;;;;;-3.31;45.32;101992.63;4961554;28;20042;-92
2020/12/18 06:15:33;;;;;;;24.88;13.02;;;;;;;-3.52;44.12;101933.81;4953353;28;20074;-93
2020/12/18 06:18:16;;;;;;;27.88;12.82;;;;;;;-3.16;44.99;102022.97;4974298;28;20031;-93
2020/12/18 06:20:45;;;;;;;30.00;13.57;;;;;;;-3.22;43.92;101991.84;4957825;28;20074;-94
2020/12/18 06:23:18;;;;;;;24.85;14.30;;;;;;;-2.30;44.73;102156.88;4951893;28;20138;-90
2020/12/18 06:25:58;;;;;;;22.88;11.70;;;;;;;-1.16;43.09;102324.63;4961684;28;20121;-96
2020/12/18 06:28:51;;;;;;;;;;;;;;;;;;;;;
2020/12/18 06:31:47;;;;;;;23.52;12.05;;;;;;;-1.43;44.02;102323.31;4975290;28;20045;-94
2020/12/18 06:34:33;;;;;;;31.25;14.75;;;;;;;-0.01;43.58;102496.94;4974160;28;20042;-92
2020/12/18 06:37:18;;;;;;;28.27;12.30;;;;;;;-1.93;43.96;102218.88;4975217;28;20035;-92
2020/12/18 06:39:54;;;;;;;28.90;13.65;;;;;;;0.02;43.39;102556.59;4952541;28;20043;-94
2020/12/18 06:42:34;;;;;;;22.70;11.63;;;;;;;-0.04;43.83;102519.00;4939695;29;20034;-93
2020/12/18 06:45:11;;;;;;;26.73;14.93;;;;;;;-2.75;44.48;102139.75;4938683;28;20110;-94
2020/12/18 06:47:46;;;;;;;26.58;12.43;;;;;;;-3.48;43.43;101962.38;4943476;29;20090;-96
2020/12/18 06:50:14;;;;;;;21.30;12.32;;;;;;;-0.79;42.81;102403.00;4958351;28;20023;-93
2020/12/18 06:52:47;;;;;;;28.85;11.52;;;;;;;-0.13;43.04;102508.94;4969540;28;20038;-94
2020/12/18 06:55:27;;;;;;;26.23;11.35;;;;;;;-0.05;42.12;102511.84;4973059;28;20105;-94
2020/12/18 06:58:15;;;;;;;16.00;8.15;;;;;;;-3.13;41.61;102051.66;4978596;28;20053;-93
2020/12/18 07:00:53;;;;;;;16.73;9.40;;;;;;;-1.16;42.38;102398.91;4972943;28;20050;-92
2020/12/18 07:03:42;;;;;;;21.88;9.52;;;;;;;-0.24;42.33;102518.03;4956993;28;20499;-93
2020/12/18 07:06:23;;;;;;;19.75;8.90;;;;;;;-0.07;42.12;102513.84;4991418;28;20494;-92
2020/12/18 07:08:51;;;;;;;18.83;9.80;;;;;;;-1.20;41.83;102361.25;4990397;28;20038;-91
2020/12/18 07:11:19;;;;;;;16.80;8.70;;;;;;;-1.82;41.78;102255.97;4993527;28;20014;-91
2020/12/18 07:13:49;;;;;;;16.90;8.27;;;;;;;-0.51;40.85;102468.63;4989780;28;20061;-89
2020/12/18 07:16:20;;;;;;;16.15;8.52;;;;;;;-2.23;41.51;102190.63;4995868;28;20022;-92
2020/12/18 07:18:50;;;;;;;19.23;9.57;;;;;;;-0.23;40.82;102517.88;4999717;28;20038;-92
2020/12/18 07:21:19;;;;;;;14.50;8.02;;;;;;;-0.51;40.99;102468.63;5015214;28;20060;-90
2020/12/18 07:23:52;;;;;;;16.10;8.93;;;;;;;-1.32;41.20;102384.91;5001942;28;20045;-91
2020/12/18 07:26:20;;;;;;;16.95;8.10;;;;;;;-0.39;41.17;102515.66;5002569;28;20030;-93
2020/12/18 07:28:49;;;;;;;17.77;8.60;;;;;;;-0.49;41.85;102531.06;4981355;28;20026;-89
2020/12/18 07:31:20;;;;;;;22.35;9.45;;;;;;;-0.43;42.74;102520.50;4968356;28;20033;-91
2020/12/18 07:33:52;;;;;;;23.60;11.52;;;;;;;-0.34;43.06;102531.59;4993066;28;20026;-94
2020/12/18 07:36:19;;;;;;;15.77;8.30;;;;;;;-0.77;43.74;102490.75;5003228;28;20143;-95
2020/12/18 07:38:46;;;;;;;19.42;11.98;;;;;;;-0.66;42.95;102480.84;4989553;28;20031;-89
2020/12/18 07:41:17;;;;;;;19.90;9.77;;;;;;;-0.39;43.72;102512.06;4986268;28;20022;-94
2020/12/18 07:43:44;;;;;;;;;;;;;;;-0.68;45.10;102502.72;5010184;28;20034;-91
2020/12/18 07:46:19;;;;;;;24.88;10.07;;;;;;;-1.26;45.50;102428.72;4997760;28;19920;-96
2020/12/18 07:48:48;;;;;;;23.63;10.43;;;;;;;-0.74;45.47;102493.25;4954986;28;20035;-95
2020/12/18 07:51:21;;;;;;;18.60;10.18;;;;;;;-1.31;45.99;102392.06;4997568;28;20034;-94
2020/12/18 07:53:52;;;;;;;19.60;10.30;;;;;;;-2.24;46.24;102260.34;4982238;28;20630;-96
2020/12/18 07:56:23;;;;;;;21.92;9.77;;;;;;;-1.51;45.54;102383.72;4997549;28;20037;-95
2020/12/18 07:59:10;;;;;;;23.33;10.90;;;;;;;-0.72;46.13;102518.44;5001229;28;20434;-96
2020/12/18 08:01:38;;;;;;;19.15;11.13;;;;;;;-0.90;46.29;102454.75;4995831;28;20030;-96
2020/12/18 08:04:11;;;;;;;22.13;12.20;;;;;;;-1.69;46.11;102318.25;4986913;28;20062;-96
2020/12/18 08:06:46;;;;;;;16.33;9.52;;;;;;;-2.24;46.07;102202.47;4993458;28;20027;-96
2020/12/18 08:09:19;;;;;;;22.83;10.30;;;;;;;-0.53;46.72;102535.91;4982174;28;20087;-96
2020/12/18 08:11:50;;;;;;;23.08;10.70;;;;;;;-1.01;46.59;102455.69;4973577;28;20038;-94
2020/12/18 08:14:18;;;;;;;22.10;11.05;;;;;;;-0.65;47.46;102558.72;4948410;28;20050;-95
2020/12/18 08:16:45;;;;;;;25.17;10.07;;;;;;;-0.59;47.62;102563.66;4975782;28;20037;-91
2020/12/18 08:19:13;;;;;;;19.40;10.93;;;;;;;-1.62;48.42;102378.34;4962475;28;20153;-95
2020/12/18 08:21:45;;;;;;;51.88;12.65;;;;;;;-1.79;49.13;102399.63;4960607;28;20541;-96
2020/12/18 08:24:31;;;;;;;25.70;9.68;;;;;;;-1.36;50.00;102483.97;4966699;28;20126;-96
2020/12/18 08:27:29;;;;;;;15.48;9.35;;;;;;;-4.22;50.14;102008.94;5078366;23;20117;-96
2020/12/18 08:30:01;;;;;;;15.32;8.45;;;;;;;-3.18;49.97;102241.69;4987094;28;20039;-96
2020/12/18 08:32:31;;;;;;;23.27;7.63;;;;;;;-1.41;49.62;102492.50;4999468;28;20027;-94
2020/12/18 08:35:06;;;;;;;16.75;8.25;;;;;;;-3.00;50.08;102254.75;4979570;28;20046;-96
2020/12/18 08:37:53;;;;;;;20.35;8.23;;;;;;;-3.87;50.07;102083.75;4979949;28;20054;-96
2020/12/18 08:43:24;;;;;;;15.90;8.25;;;;;;;-1.22;51.94;102589.69;5232444;23;20063;-96
2020/12/18 08:45:50;;;;;;;;;;;;;;;-1.34;52.28;102579.81;4952659;29;20110;-95
2020/12/18 08:48:26;;;;;;;14.23;6.68;;;;;;;-3.29;52.34;102285.88;4950008;29;19914;-95
2020/12/18 08:51:09;;;;;;;12.75;6.95;;;;;;;-1.32;52.68;102594.16;4956732;29;20121;-96
2020/12/18 08:59:07;;;;;;;18.27;7.35;;;;;;;-1.86;51.55;102543.19;5431816;23;20117;-93
2020/12/18 09:01:34;;;;;;;20.48;8.68;;;;;;;-1.42;52.27;102637.50;4978823;28;20038;-96
2020/12/18 09:04:02;;;;;;;22.08;6.82;;;;;;;-2.58;52.07;102420.41;4977164;28;20023;-95
2020/12/18 09:06:32;;;;;;;16.88;7.25;;;;;;;-1.47;52.87;102634.28;4991577;28;20022;-96
2020/12/18 09:09:06;;;;;;;10.90;6.15;;;;;;;-2.45;52.61;102439.28;4984694;28;20034;-94
2020/12/18 09:11:33;;;;;;;18.08;6.70;;;;;;;-2.55;53.00;102460.00;4979345;28;20027;-94
2020/12/18 09:14:01;;;;;;;16.52;6.72;;;;;;;-1.38;52.64;102618.13;4976606;28;20117;-96
2020/12/18 09:16:29;;;;;;;14.63;7.07;;;;;;;-1.30;51.30;102624.78;4976523;28;20062;-95
2020/12/18 09:18:59;;;;;;;23.08;6.47;;;;;;;-3.05;51.40;102322.88;4976744;28;20031;-95
2020/12/18 09:21:30;;;;;;;14.98;6.13;;;;;;;-2.67;52.29;102430.13;4975823;28;20181;-91
2020/12/18 09:23:57;;;;;;;13.00;6.90;;;;;;;-1.63;52.49;102608.38;4975508;28;20062;-92
2020/12/18 09:26:26;;;;;;;14.63;6.82;;;;;;;-3.06;52.27;102356.38;5008979;28;20106;-95
2020/12/18 09:28:54;;;;;;;17.60;7.90;;;;;;;-1.51;52.70;102617.38;4993556;28;20026;-92
2020/12/18 09:45:02;;;;;;;18.70;8.52;;;;;;;-2.79;50.19;102469.06;5094083;23;20415;-95
2020/12/18 09:50:21;;;;;;;24.50;10.73;;;;;;;-4.77;50.99;102179.81;5452632;23;20050;-90
2020/12/18 09:57:10;;;;;;;15.52;7.28;;;;;;;-2.20;49.85;102652.56;5001324;28;20049;-92
2020/12/18 10:00:37;;;;;;;18.65;7.07;;;;;;;-2.25;50.17;102635.78;4959234;29;20046;-91
2020/12/18 10:03:15;;;;;;;16.30;8.80;;;;;;;-4.29;50.09;102300.63;4960593;29;20071;-94
2020/12/18 13:48:13;;;;;;;20.67;9.93;;;;;;;-6.10;41.07;102661.03;5129193;23;20459;-88
2020/12/18 13:51:43;;;;;;;15.43;9.80;;;;;;;-7.07;42.57;102539.16;5013720;28;20034;-86
2020/12/18 13:54:52;;;;;;;18.70;7.60;;;;;;;-5.08;42.23;102855.50;5008030;28;20035;-85
2020/12/18 13:57:39;;;;;;;29.42;8.35;;;;;;;-8.29;42.61;102321.97;4988017;28;20049;-81
2020/12/18 14:05:23;;;;;;;18.55;7.28;;;;;;;-9.10;42.07;102229.78;5475137;23;20053;-85
2020/12/18 14:08:34;;;;;;;24.00;8.57;;;;;;;-5.33;41.32;102866.94;4910247;29;20047;-86
2020/12/18 14:11:46;;;;;;;20.83;7.57;;;;;;;-5.14;40.51;102872.97;4961991;28;20030;-85
2020/12/18 14:18:28;;;;;;;15.40;6.05;;;;;;;-6.99;40.44;102611.44;4921594;29;20046;-85
2020/12/18 14:34:39;;;;;;;15.05;8.43;;;;;;;-9.40;39.76;102251.09;5912456;23;20002;-84
2020/12/18 14:37:31;;;;;;;12.98;6.28;;;;;;;-8.91;39.13;102322.72;4884106;29;20044;-88
2020/12/18 14:40:37;;;;;;;17.27;7.05;;;;;;;-7.23;39.71;102627.16;4947501;28;20059;-84
2020/12/18 14:43:53;;;;;;;16.00;6.93;;;;;;;-9.06;39.34;102343.19;4942508;28;20034;-84
2020/12/18 14:46:45;;;;;;;15.27;6.05;;;;;;;-6.03;38.77;102850.34;5090589;23;20023;-86
2020/12/18 14:49:50;;;;;;;20.98;7.63;;;;;;;-5.62;38.25;102897.41;4985685;28;20038;-84
2020/12/18 14:52:43;;;;;;;12.18;5.78;;;;;;;-7.08;37.79;102644.28;4967807;28;20027;-84
2020/12/18 14:55:39;;;;;;;13.95;7.38;;;;;;;-7.85;38.77;102516.63;4999254;28;20022;-87
2020/12/18 14:58:31;;;;;;;22.17;6.88;;;;;;;-9.17;38.32;102318.75;4995241;28;20026;-84
2020/12/18 15:01:34;;;;;;;17.27;7.60;;;;;;;-8.76;39.15;102428.41;4991300;28;20019;-84
2020/12/18 15:04:23;;;;;;;18.08;6.38;;;;;;;-9.04;38.84;102333.22;4997419;28;20062;-85
2020/12/18 15:07:28;;;;;;;14.25;5.13;;;;;;;-7.66;39.09;102536.25;4999209;28;20014;-86
2020/12/18 15:10:54;;;;;;;19.25;7.75;;;;;;;-5.93;39.34;102843.41;4954717;28;20055;-84
2020/12/18 15:40:11;;;;;;;13.77;6.68;;;;;;;-8.44;39.54;102495.63;4408269;23;20046;-85
2020/12/18 15:43:11;;;;;;;19.40;6.88;;;;;;;-9.02;39.37;102389.53;4994678;28;20031;-86
2020/12/18 16:01:23;;;;;;;13.90;6.35;;;;;;;-6.64;38.35;102825.91;4998717;28;20053;-85
2020/12/18 16:04:37;;;;;;;16.60;5.88;;;;;;;-8.19;38.26;102525.69;4980722;28;20027;-86
2020/12/18 16:07:30;;;;;;;17.23;6.13;;;;;;;-5.77;38.01;102977.44;4979646;28;20031;-85
2020/12/18 16:21:30;;;;;;;9.65;4.70;;;;;;;-8.17;38.05;102589.16;5306474;23;20229;-84
2020/12/18 16:43:55;;;;;;;10.93;5.50;;;;;;;-9.35;36.02;102434.09;6060694;23;20025;-84
2020/12/18 17:00:23;;;;;;;8.05;4.68;;;;;;;-6.14;34.66;102974.16;5105736;23;20051;-84
2020/12/18 17:15:32;;;;;;;12.57;5.05;;;;;;;-8.08;34.36;102649.63;5179150;23;20050;-84
2020/12/18 17:19:11;;;;;;;7.80;3.42;;;;;;;-9.46;33.59;102449.91;4982655;28;20110;-83
2020/12/18 17:26:01;;;;;;;10.15;4.05;;;;;;;-6.20;33.57;103013.97;4892545;29;20127;-86
2020/12/18 17:40:13;;;;;;;7.38;3.42;;;;;;;-6.14;33.02;103020.84;5229653;23;20038;-84
2020/12/18 17:42:58;;;;;;;15.90;4.85;;;;;;;-7.53;34.16;102862.00;4999678;28;20067;-85
2020/12/18 17:46:07;;;;;;;9.85;3.28;;;;;;;-9.45;33.37;102519.56;4976317;28;20043;-83
2020/12/18 17:49:08;;;;;;;15.85;4.15;;;;;;;-8.39;33.68;102711.19;5012224;28;20007;-85
2020/12/18 17:54:57;;;;;;;15.63;5.57;;;;;;;-6.26;34.17;103048.47;5661821;23;20039;-86
2020/12/18 17:57:44;;;;;;;12.57;5.20;;;;;;;-8.15;35.44;102817.56;5002516;28;20030;-84
2020/12/18 18:03:04;;;;;;;10.10;5.22;;;;;;;-8.70;34.34;102680.53;5159233;23;20053;-84
2020/12/18 18:06:46;;;;;;;14.88;5.15;;;;;;;-6.30;34.04;103039.72;4999701;28;20074;-85
2020/12/18 18:28:04;;;;;;;8.27;4.90;;;;;;;-8.56;35.75;102671.78;5635507;23;20042;-84
2020/12/18 18:31:40;;;;;;;14.32;5.88;;;;;;;-6.32;35.92;103057.78;4991135;28;20244;-85
2020/12/18 18:35:14;;;;;;;11.75;5.93;;;;;;;-8.56;35.34;102719.28;4948784;29;20086;-84
2020/12/18 18:38:13;;;;;;;15.90;4.72;;;;;;;-9.98;35.54;102476.50;4946476;29;20043;-84
2020/12/18 18:41:27;;;;;;;9.48;4.30;;;;;;;-8.77;35.18;102716.69;4954941;29;20031;-84
2020/12/18 18:47:56;;;;;;;9.55;4.10;;;;;;;-6.48;35.21;103101.72;4932986;29;20106;-85
2020/12/18 18:51:28;;;;;;;11.38;3.95;;;;;;;-7.42;35.60;102967.28;4942985;29;20016;-84
2020/12/18 18:53:56;;;;;;;12.05;5.20;;;;;;;-7.34;34.25;102943.56;5015334;28;20022;-84
2020/12/18 18:57:16;;;;;;;5.03;3.63;;;;;;;-6.99;34.44;102999.25;5017938;28;20048;-84
2020/12/18 19:10:52;;;;;;;15.73;6.10;;;;;;;-6.38;36.17;103068.88;5972338;23;20010;-85
2020/12/18 19:24:59;;;;;;;19.38;4.78;;;;;;;-7.43;36.08;102865.97;5380818;23;20034;-86
2020/12/18 20:11:22;;;;;;;13.55;5.28;;;;;;;-6.96;34.26;103085.25;5573883;23;20303;-83
2020/12/18 20:14:59;;;;;;;11.80;3.97;;;;;;;-6.90;35.34;103095.75;4966192;28;20035;-86
2020/12/18 20:54:56;;;;;;;9.23;4.38;;;;;;;-8.49;35.47;102833.50;4935898;29;20053;-83
2020/12/18 20:57:53;;;;;;;8.80;5.68;;;;;;;-8.28;35.54;102866.53;4940621;29;20037;-84
2020/12/18 21:01:55;;;;;;;17.83;6.32;;;;;;;-7.09;35.63;103054.53;4905474;29;20041;-84
2020/12/18 21:04:53;;;;;;;2.97;2.50;;;;;;;-7.18;35.63;103101.63;4867597;29;20045;-84
2020/12/18 21:08:10;;;;;;;7.55;4.43;;;;;;;-9.70;35.89;102672.72;4865607;29;20033;-83
2020/12/18 21:14:38;;;;;;;12.57;6.78;;;;;;;-7.33;34.49;103082.56;4824294;29;20054;-84
2020/12/18 21:20:25;;;;;;;7.82;4.47;;;;;;;-8.43;35.07;102886.06;4836329;29;20085;-85